Time;durP1;ratioP1;P1;durP2;ratioP2;P2;SDS_P1;SDS_P2;PMS_P1;PMS_P2;Temp;Humidity;BMP_temperature;BMP_pressure;BME280_temperature;BME280_humidity;BME280_pressure;Samples;Min_cycle;Max_cycle;Signal;HPM_P1;HPM_P2
2023/01/20 00:02:05;;;;;;;13.30;4.10;;;;;;;8.77;100.00;100337.77;109110;1254;63995;-92
2023/01/20 00:04:53;;;;;;;11.10;3.30;;;;;;;8.72;100.00;100338.46;109049;1258;61002;-93
2023/01/20 00:07:41;;;;;;;10.80;3.90;;;;;;;8.67;100.00;100342.60;109202;1253;74937;-93
2023/01/20 00:10:29;;;;;;;10.00;3.30;;;;;;;8.66;100.00;100340.75;109095;1256;69828;-92
2023/01/20 00:13:17;;;;;;;9.00;3.20;;;;;;;8.65;100.00;100350.77;109016;1254;74316;-92
2023/01/20 00:16:07;;;;;;;10.20;2.90;;;;;;;8.62;100.00;100356.20;109185;1254;61287;-93
2023/01/20 00:18:55;;;;;;;10.60;3.10;;;;;;;8.59;100.00;100352.56;109089;1253;62422;-92
2023/01/20 00:21:43;;;;;;;13.40;3.90;;;;;;;8.55;100.00;100354.45;108960;1257;75148;-93
2023/01/20 00:24:31;;;;;;;7.30;3.50;;;;;;;8.53;100.00;100353.08;109174;1254;69241;-93
2023/01/20 00:27:20;;;;;;;9.50;2.90;;;;;;;8.54;100.00;100353.25;108944;1254;75056;-94
2023/01/20 00:30:08;;;;;;;12.10;3.70;;;;;;;8.55;100.00;100355.15;109019;1254;63020;-93
2023/01/20 00:32:56;;;;;;;12.20;2.80;;;;;;;8.55;100.00;100359.02;108988;1254;61158;-92
2023/01/20 00:35:45;;;;;;;7.60;2.60;;;;;;;8.52;100.00;100357.05;108987;1254;75960;-92
2023/01/20 00:38:33;;;;;;;8.00;3.30;;;;;;;8.52;100.00;100360.10;109080;1254;71271;-92
2023/01/20 00:41:20;;;;;;;6.30;3.10;;;;;;;8.49;100.00;100366.91;109076;1254;73650;-92
2023/01/20 00:44:13;;;;;;;10.60;3.10;;;;;;;8.47;100.00;100369.08;109157;1254;62243;-92
2023/01/20 00:47:00;;;;;;;14.30;3.60;;;;;;;8.40;100.00;100371.27;109078;1253;61650;-93
2023/01/20 00:49:48;;;;;;;7.90;2.70;;;;;;;8.36;100.00;100373.64;109106;1254;75219;-92
2023/01/20 00:52:38;;;;;;;10.60;3.40;;;;;;;8.32;100.00;100366.70;108992;1254;69661;-91
2023/01/20 00:55:26;;;;;;;8.80;2.80;;;;;;;8.31;100.00;100373.40;108895;1254;73750;-91
2023/01/20 00:58:14;;;;;;;9.80;3.10;;;;;;;8.29;100.00;100373.89;109098;1254;64363;-90
2023/01/20 01:01:02;;;;;;;11.90;3.40;;;;;;;8.26;100.00;100377.30;109020;1254;61015;-92
2023/01/20 01:03:53;;;;;;;8.60;3.00;;;;;;;8.24;100.00;100375.28;109033;1254;75245;-92
2023/01/20 01:06:40;;;;;;;11.60;3.60;;;;;;;8.24;100.00;100369.94;109134;1254;70849;-92
2023/01/20 01:09:28;;;;;;;8.50;2.70;;;;;;;8.28;100.00;100370.73;108967;1254;73767;-92
2023/01/20 01:12:16;;;;;;;10.90;3.30;;;;;;;8.26;100.00;100367.92;109076;1254;61189;-93
2023/01/20 01:15:05;;;;;;;9.80;3.40;;;;;;;8.23;100.00;100364.49;108982;1254;62168;-93
2023/01/20 01:17:53;;;;;;;12.70;3.20;;;;;;;8.27;100.00;100365.42;108998;1254;74163;-92
2023/01/20 01:20:43;;;;;;;10.50;2.90;;;;;;;8.28;100.00;100365.81;108977;1254;70511;-93
2023/01/20 01:23:31;;;;;;;9.30;3.00;;;;;;;8.22;100.00;100367.87;109062;1253;73340;-91
2023/01/20 01:26:18;;;;;;;10.40;2.90;;;;;;;8.21;100.00;100368.73;109153;1254;64014;-90
2023/01/20 01:29:06;;;;;;;5.60;2.70;;;;;;;8.19;100.00;100363.83;108941;1254;60956;-92
2023/01/20 01:31:54;;;;;;;10.30;3.20;;;;;;;8.19;100.00;100360.73;109162;1253;75404;-91
2023/01/20 01:34:42;;;;;;;8.00;3.00;;;;;;;8.22;100.00;100362.19;108935;1254;70899;-91
2023/01/20 01:37:29;;;;;;;17.50;5.00;;;;;;;8.23;100.00;100360.62;109018;1254;73471;-90
2023/01/20 01:40:17;;;;;;;12.50;3.20;;;;;;;8.27;100.00;100357.98;108892;1254;61898;-91
2023/01/20 01:43:13;;;;;;;5.90;2.80;;;;;;;8.29;100.00;100359.62;109157;1257;62419;-90
2023/01/20 01:46:01;;;;;;;10.00;3.20;;;;;;;8.31;100.00;100360.94;109009;1253;72639;-90
2023/01/20 01:48:49;;;;;;;9.20;3.20;;;;;;;8.33;100.00;100357.19;109054;1253;71108;-91
2023/01/20 01:51:49;;;;;;;7.30;2.10;;;;;;;8.37;100.00;100353.76;108925;1254;74098;-91
2023/01/20 01:54:38;;;;;;;7.90;3.10;;;;;;;8.35;100.00;100352.40;109205;1256;62386;-91
2023/01/20 01:57:29;;;;;;;6.80;3.40;;;;;;;8.35;100.00;100355.55;108975;1254;59318;-92
2023/01/20 02:00:16;;;;;;;7.20;3.20;;;;;;;8.28;100.00;100357.65;109041;1254;75142;-93
2023/01/20 02:03:05;;;;;;;9.10;3.00;;;;;;;8.24;100.00;100356.76;109191;1254;70939;-92
2023/01/20 02:05:54;;;;;;;10.40;3.30;;;;;;;8.22;100.00;100359.41;109044;1259;71901;-91
2023/01/20 02:08:42;;;;;;;5.00;2.40;;;;;;;8.22;100.00;100352.83;109156;1254;63397;-93
2023/01/20 02:11:34;;;;;;;7.90;2.90;;;;;;;8.21;100.00;100358.05;109254;1254;62060;-92
2023/01/20 02:14:25;;;;;;;12.40;4.00;;;;;;;8.24;100.00;100354.70;108954;1254;74069;-94
2023/01/20 02:17:30;;;;;;;7.00;2.90;;;;;;;8.22;100.00;100355.88;109022;1253;69860;-92
2023/01/20 02:20:39;;;;;;;4.20;2.20;;;;;;;8.22;100.00;100351.96;109196;1253;73547;-91
2023/01/20 02:23:41;;;;;;;14.30;3.80;;;;;;;8.19;100.00;100348.52;109013;1254;60968;-94
2023/01/20 02:26:41;;;;;;;10.90;2.50;;;;;;;8.20;100.00;100347.88;109153;1254;62484;-92
2023/01/20 02:30:07;;;;;;;9.20;3.00;;;;;;;8.24;100.00;100343.36;109011;1254;74602;-92
2023/01/20 02:32:57;;;;;;;9.80;3.10;;;;;;;8.21;100.00;100343.58;109133;1258;68681;-93
2023/01/20 02:35:48;;;;;;;9.60;3.00;;;;;;;8.22;100.00;100349.52;109093;1254;74911;-93
2023/01/20 02:38:59;;;;;;;8.10;2.90;;;;;;;8.26;100.00;100351.06;109035;1254;64328;-92
2023/01/20 02:41:56;;;;;;;6.60;2.80;;;;;;;8.28;100.00;100354.31;109064;1254;61422;-93
2023/01/20 02:45:24;;;;;;;6.20;2.70;;;;;;;8.28;100.00;100355.59;109256;1258;72022;-92
2023/01/20 02:48:42;;;;;;;10.70;2.90;;;;;;;8.31;100.00;100354.50;108689;1262;69916;-92
2023/01/20 02:51:41;;;;;;;8.20;2.60;;;;;;;8.31;100.00;100351.35;109277;1254;72904;-92
2023/01/20 02:54:30;;;;;;;6.90;2.50;;;;;;;8.28;100.00;100342.62;109067;1254;62766;-92
2023/01/20 02:57:30;;;;;;;11.30;3.40;;;;;;;8.26;100.00;100353.61;108969;1256;60575;-92
2023/01/20 03:00:26;;;;;;;10.50;3.20;;;;;;;8.32;100.00;100355.98;109050;1257;76193;-93
2023/01/20 03:03:16;;;;;;;11.10;2.90;;;;;;;8.28;100.00;100362.11;108967;1254;69882;-92
2023/01/20 03:06:13;;;;;;;8.50;3.00;;;;;;;8.27;100.00;100366.08;108851;1256;74743;-93
2023/01/20 03:09:04;;;;;;;8.30;3.20;;;;;;;8.27;100.00;100372.63;108898;1255;60525;-93
2023/01/20 03:11:55;;;;;;;6.10;2.50;;;;;;;8.28;100.00;100374.90;109104;1254;62207;-93
2023/01/20 03:14:43;;;;;;;11.00;2.80;;;;;;;8.29;100.00;100381.29;108967;1254;74656;-93
2023/01/20 03:17:32;;;;;;;6.70;2.70;;;;;;;8.28;100.00;100384.70;109143;1254;69380;-92
2023/01/20 03:20:21;;;;;;;12.90;3.00;;;;;;;8.29;100.00;100397.08;108986;1254;73778;-93
2023/01/20 03:23:10;;;;;;;5.40;2.30;;;;;;;8.28;100.00;100397.30;109235;1254;62200;-93
2023/01/20 03:25:58;;;;;;;8.70;2.60;;;;;;;8.24;100.00;100400.64;109273;1254;61157;-92
2023/01/20 03:28:47;;;;;;;8.10;2.80;;;;;;;8.16;100.00;100401.75;109108;1254;76115;-92
2023/01/20 03:31:37;;;;;;;4.70;2.90;;;;;;;8.13;100.00;100403.52;109095;1254;69703;-94
2023/01/20 03:34:27;;;;;;;10.30;2.80;;;;;;;8.12;100.00;100405.27;109160;1254;74624;-93
2023/01/20 03:37:19;;;;;;;9.20;2.60;;;;;;;8.16;100.00;100402.45;109179;1254;62697;-94
2023/01/20 03:40:10;;;;;;;8.80;2.70;;;;;;;8.15;100.00;100400.60;109039;1254;59840;-92
2023/01/20 03:43:06;;;;;;;;;;;;;;;8.19;100.00;100400.52;109229;1257;75154;-93
2023/01/20 03:46:01;;;;;;;6.90;3.00;;;;;;;8.17;100.00;100401.88;109057;1256;68323;-92
2023/01/20 03:48:52;;;;;;;8.30;3.50;;;;;;;8.18;100.00;100404.86;108891;1254;73262;-92
2023/01/20 03:52:02;;;;;;;9.50;2.90;;;;;;;8.15;100.00;100404.79;109010;1253;63359;-90
2023/01/20 03:55:03;;;;;;;9.70;3.10;;;;;;;8.14;100.00;100409.67;109085;1254;61203;-90
2023/01/20 03:58:03;;;;;;;10.60;3.70;;;;;;;8.11;100.00;100415.48;109104;1253;76143;-92
2023/01/20 04:00:53;;;;;;;10.60;3.50;;;;;;;8.08;100.00;100418.36;109100;1254;70548;-93
2023/01/20 06:08:34;;;;;;;15.50;6.80;;;;;;;6.10;100.00;100529.78;105824;1290;599751;-89
2023/01/20 06:11:21;;;;;;;18.00;6.80;;;;;;;6.17;100.00;100535.33;108201;1268;63023;-92
2023/01/20 06:14:09;;;;;;;11.40;5.30;;;;;;;6.26;100.00;100539.27;108218;1269;61094;-92
2023/01/20 06:16:56;;;;;;;9.60;4.90;;;;;;;6.35;100.00;100541.88;108368;1266;74046;-91
2023/01/20 06:19:44;;;;;;;7.10;3.90;;;;;;;6.41;100.00;100537.20;108287;1268;70617;-92
2023/01/20 06:22:32;;;;;;;7.00;4.00;;;;;;;6.52;100.00;100538.23;108347;1265;167639;-92
2023/01/20 06:25:19;;;;;;;7.40;4.10;;;;;;;6.60;100.00;100539.36;108513;1266;62405;-92
2023/01/20 06:28:07;;;;;;;13.80;4.80;;;;;;;6.71;100.00;100540.39;108507;1264;61460;-93
2023/01/20 06:31:03;;;;;;;12.60;5.20;;;;;;;6.84;100.00;100542.84;108477;1264;73983;-95
2023/01/20 06:33:51;;;;;;;8.80;3.90;;;;;;;6.95;100.00;100548.23;108543;1264;71162;-92
2023/01/20 06:36:39;;;;;;;7.30;3.90;;;;;;;7.05;100.00;100553.89;108557;1264;75463;-93
2023/01/20 06:39:26;;;;;;;8.60;3.70;;;;;;;7.20;100.00;100550.88;108551;1264;62364;-92
2023/01/20 06:42:14;;;;;;;9.90;3.70;;;;;;;7.33;100.00;100550.64;108425;1264;59530;-94
2023/01/20 06:45:01;;;;;;;7.30;3.60;;;;;;;7.47;100.00;100561.45;108526;1265;73570;-93
2023/01/20 06:47:49;;;;;;;8.40;4.40;;;;;;;7.60;100.00;100562.13;108482;1264;68240;-92
2023/01/20 06:50:37;;;;;;;9.20;3.40;;;;;;;7.70;100.00;100555.52;108487;1263;73790;-93
2023/01/20 06:53:25;;;;;;;6.30;3.20;;;;;;;7.85;100.00;100555.50;108463;1263;64152;-93
2023/01/20 06:56:13;;;;;;;7.80;3.40;;;;;;;7.95;100.00;100555.20;108699;1264;62829;-93
2023/01/20 06:59:01;;;;;;;9.30;4.00;;;;;;;8.08;100.00;100555.05;108548;1264;72509;-93
2023/01/20 07:01:50;;;;;;;4.20;2.90;;;;;;;8.17;100.00;100548.85;108559;1263;69569;-94
2023/01/20 07:04:43;;;;;;;10.70;3.50;;;;;;;8.31;100.00;100553.14;108502;1263;73692;-93
2023/01/20 07:07:31;;;;;;;;;;;;;;;8.45;100.00;100554.95;108641;1263;63014;-95
2023/01/20 07:10:18;;;;;;;6.30;3.60;;;;;;;8.55;100.00;100551.59;108672;1263;61953;-94
2023/01/20 07:13:06;;;;;;;5.70;3.00;;;;;;;8.66;100.00;100549.41;108662;1263;75134;-94
2023/01/20 07:15:53;;;;;;;8.90;3.70;;;;;;;8.68;100.00;100547.67;108935;1261;70955;-95
2023/01/20 07:18:41;;;;;;;7.40;3.50;;;;;;;8.76;100.00;100551.42;108931;1263;73701;-94
2023/01/20 07:21:29;;;;;;;8.50;3.20;;;;;;;8.90;100.00;100549.15;108864;1263;61102;-95
2023/01/20 07:24:16;;;;;;;7.60;2.90;;;;;;;8.97;100.00;100560.40;108516;1265;62400;-92
2023/01/20 07:27:04;;;;;;;8.90;4.30;;;;;;;9.02;100.00;100558.69;108458;1263;75372;-92
2023/01/20 07:29:52;;;;;;;10.00;3.90;;;;;;;9.12;100.00;100564.61;108546;1262;70961;-92
2023/01/20 07:32:39;;;;;;;6.60;3.70;;;;;;;9.20;100.00;100574.41;108533;1262;73944;-93
2023/01/20 07:35:27;;;;;;;6.60;3.20;;;;;;;9.26;100.00;100579.02;108544;1263;61691;-92
2023/01/20 07:38:15;;;;;;;8.60;4.30;;;;;;;9.35;100.00;100584.55;108609;1264;61299;-92
2023/01/20 07:41:04;;;;;;;11.30;4.20;;;;;;;9.36;100.00;100585.31;108569;1264;74831;-93
2023/01/20 07:43:52;;;;;;;6.80;3.70;;;;;;;9.36;100.00;100588.37;108548;1269;69661;-94
2023/01/20 07:46:41;;;;;;;6.30;4.30;;;;;;;9.33;100.00;100586.93;108570;1263;73489;-93
2023/01/20 07:49:28;;;;;;;11.60;4.40;;;;;;;9.33;100.00;100586.61;108487;1265;61963;-93
2023/01/20 07:52:16;;;;;;;9.40;5.20;;;;;;;9.33;100.00;100588.14;108523;1263;62325;-93
2023/01/20 07:55:04;;;;;;;11.40;5.50;;;;;;;9.36;100.00;100593.88;108868;1257;75290;-94
2023/01/20 07:57:52;;;;;;;9.50;4.60;;;;;;;9.43;100.00;100592.91;108911;1256;69427;-93
2023/01/20 10:10:18;;;;;;;4.80;2.50;;;;;;;12.10;100.00;100601.92;105632;1291;601207;-93
2023/01/20 10:13:31;;;;;;;6.20;2.90;;;;;;;12.22;100.00;100601.40;108239;1269;62794;-91
2023/01/20 10:16:30;;;;;;;6.70;3.00;;;;;;;12.31;100.00;100605.27;108275;1269;61047;-94
2023/01/20 10:19:30;;;;;;;5.60;3.10;;;;;;;12.39;100.00;100609.64;108139;1269;74787;-93
2023/01/20 10:22:21;;;;;;;6.30;3.30;;;;;;;12.46;100.00;100613.24;108185;1266;70955;-92
2023/01/20 10:25:33;;;;;;;4.40;2.50;;;;;;;12.55;100.00;100608.77;108068;1269;74103;-92
2023/01/20 10:28:28;;;;;;;5.70;2.50;;;;;;;12.60;100.00;100606.86;108893;1254;62534;-93
2023/01/20 10:31:18;;;;;;;4.20;2.60;;;;;;;12.70;100.00;100606.38;108889;1254;62532;-92
2023/01/20 10:34:11;;;;;;;3.30;2.60;;;;;;;12.82;100.00;100602.79;108920;1256;73252;-92
2023/01/20 10:37:05;;;;;;;;;;;;;;;12.96;100.00;100602.42;109005;1254;69145;-92
2023/01/20 10:40:09;;;;;;;4.50;2.50;;;;;;;13.07;100.00;100605.70;109068;1254;74312;-93
2023/01/20 10:42:58;;;;;;;5.50;3.30;;;;;;;13.16;100.00;100602.08;108889;1253;61228;-93
2023/01/20 10:45:58;;;;;;;5.90;3.30;;;;;;;13.20;100.00;100602.53;108948;1254;62710;-91
2023/01/20 10:48:53;;;;;;;5.60;3.00;;;;;;;13.22;100.00;100600.14;109085;1253;74256;-92
2023/01/20 10:52:07;;;;;;;6.30;2.80;;;;;;;13.19;100.00;100597.77;109144;1253;70474;-93
2023/01/20 10:55:18;;;;;;;4.90;2.60;;;;;;;13.17;100.00;100593.58;109040;1257;74769;-93
2023/01/20 10:58:30;;;;;;;7.00;2.60;;;;;;;13.16;100.00;100589.42;109181;1254;61456;-93
2023/01/20 11:01:18;;;;;;;6.30;2.50;;;;;;;13.11;100.00;100587.83;108997;1260;60401;-92
2023/01/20 11:04:16;;;;;;;7.50;3.80;;;;;;;13.07;100.00;100588.70;109137;1253;73235;-92
2023/01/20 11:07:07;;;;;;;5.60;2.60;;;;;;;13.02;100.00;100583.54;108961;1254;67625;-93
2023/01/20 11:09:55;;;;;;;3.90;2.60;;;;;;;12.97;100.00;100578.98;109066;1254;73744;-92
2023/01/20 11:12:46;;;;;;;5.50;3.10;;;;;;;12.90;100.00;100577.86;108971;1254;61671;-93
2023/01/20 11:15:40;;;;;;;5.60;3.00;;;;;;;12.88;100.00;100576.67;108989;1260;62384;-92
2023/01/20 11:18:29;;;;;;;9.80;3.40;;;;;;;12.87;100.00;100577.79;109118;1254;73550;-91
2023/01/20 11:21:24;;;;;;;5.70;3.50;;;;;;;12.87;100.00;100571.86;108982;1254;71102;-94
2023/01/20 11:24:35;;;;;;;7.40;2.50;;;;;;;12.90;100.00;100568.91;109002;1254;73829;-93
2023/01/20 11:27:51;;;;;;;5.70;2.80;;;;;;;12.95;100.00;100566.02;109107;1259;62632;-93
2023/01/20 11:31:10;;;;;;;;;;;;;;;;;;;;;
2023/01/20 11:34:39;;;;;;;;;;;;;;;;;;;;;
2023/01/20 11:38:26;;;;;;;4.10;2.30;;;;;;;13.15;100.00;100558.80;109148;1256;82943;-90
2023/01/20 11:41:28;;;;;;;5.10;2.40;;;;;;;13.13;100.00;100556.27;108998;1257;75221;-91
2023/01/20 11:44:19;;;;;;;7.00;2.70;;;;;;;13.08;100.00;100557.90;108987;1256;59308;-91
2023/01/20 11:47:24;;;;;;;5.50;3.00;;;;;;;13.08;100.00;100557.19;109195;1254;61426;-90
2023/01/20 11:50:22;;;;;;;6.00;2.50;;;;;;;13.04;100.00;100558.06;109048;1254;75184;-90
2023/01/20 11:53:12;;;;;;;4.90;2.40;;;;;;;13.00;100.00;100556.74;108916;1257;67801;-90
2023/01/20 11:56:02;;;;;;;5.40;2.70;;;;;;;13.05;100.00;100558.55;109110;1254;75578;-91
2023/01/20 11:58:57;;;;;;;5.30;2.70;;;;;;;13.05;100.00;100557.39;108998;1254;61516;-92
2023/01/20 12:01:50;;;;;;;4.60;2.50;;;;;;;13.00;100.00;100560.75;109212;1254;60938;-92
2023/01/20 12:04:59;;;;;;;7.60;2.80;;;;;;;12.96;100.00;100568.96;109026;1259;73720;-90
2023/01/20 12:07:48;;;;;;;8.20;4.00;;;;;;;12.89;100.00;100575.13;109030;1254;68650;-89
2023/01/20 12:10:35;;;;;;;23.20;9.90;;;;;;;12.78;100.00;100580.95;109047;1257;74946;-91
2023/01/20 12:13:25;;;;;;;19.70;10.90;;;;;;;12.33;100.00;100582.88;108970;1254;62145;-90
2023/01/20 12:16:12;;;;;;;25.40;14.20;;;;;;;11.78;100.00;100584.66;108919;1254;62305;-90
2023/01/20 12:19:03;;;;;;;22.10;10.60;;;;;;;11.16;100.00;100587.13;109019;1254;73398;-92
2023/01/20 12:21:51;;;;;;;23.10;10.70;;;;;;;10.59;100.00;100592.75;109129;1254;71440;-90
2023/01/20 12:25:09;;;;;;;16.10;8.20;;;;;;;10.06;100.00;100597.99;108903;1257;74649;-91
2023/01/20 12:28:03;;;;;;;12.50;6.50;;;;;;;9.49;100.00;100604.92;108932;1254;61222;-92
2023/01/20 12:30:57;;;;;;;14.10;6.80;;;;;;;9.04;100.00;100614.19;109000;1257;64370;-90
2023/01/20 12:33:50;;;;;;;16.40;8.50;;;;;;;8.58;100.00;100621.16;109114;1254;72887;-91
2023/01/20 12:36:59;;;;;;;16.60;7.60;;;;;;;8.25;100.00;100624.31;109026;1254;70620;-90
2023/01/20 12:39:59;;;;;;;11.70;5.90;;;;;;;8.03;100.00;100629.67;109026;1253;73360;-90
2023/01/20 12:42:56;;;;;;;14.80;6.30;;;;;;;7.84;100.00;100633.19;109045;1257;62702;-90
2023/01/20 12:46:13;;;;;;;15.80;7.70;;;;;;;7.64;100.00;100630.32;109016;1253;60639;-91
2023/01/20 12:49:25;;;;;;;16.10;8.90;;;;;;;7.50;100.00;100634.02;109134;1254;73192;-90
2023/01/20 12:52:32;;;;;;;19.30;7.80;;;;;;;7.34;100.00;100631.06;109017;1254;70286;-90
2023/01/20 12:55:35;;;;;;;19.40;8.10;;;;;;;7.25;100.00;100634.81;109067;1256;74717;-92
2023/01/20 12:58:26;;;;;;;17.80;8.60;;;;;;;7.15;100.00;100636.52;109089;1258;61085;-90
2023/01/20 13:01:24;;;;;;;18.30;8.20;;;;;;;7.02;100.00;100634.95;109012;1254;61546;-91
2023/01/20 13:04:21;;;;;;;15.30;7.60;;;;;;;6.86;100.00;100638.42;109083;1256;73368;-90
2023/01/20 13:07:13;;;;;;;15.40;7.00;;;;;;;6.63;100.00;100644.43;108988;1254;69896;-90
2023/01/20 13:10:25;;;;;;;16.90;8.30;;;;;;;6.42;100.00;100649.34;109099;1259;75175;-91
2023/01/20 13:13:29;;;;;;;19.90;8.70;;;;;;;6.26;100.00;100654.39;108962;1257;63400;-91
2023/01/20 13:16:20;;;;;;;18.80;7.10;;;;;;;6.10;100.00;100652.05;108977;1255;62052;-92
2023/01/20 13:19:16;;;;;;;17.50;8.30;;;;;;;6.04;100.00;100652.27;109112;1254;74319;-90
2023/01/20 13:22:20;;;;;;;17.50;7.60;;;;;;;6.02;100.00;100649.30;108948;1254;70938;-90
2023/01/20 13:25:12;;;;;;;15.80;6.90;;;;;;;6.01;100.00;100645.93;109083;1257;72815;-89
2023/01/20 13:28:00;;;;;;;16.40;6.40;;;;;;;6.01;100.00;100649.08;109131;1256;60542;-91
2023/01/20 13:30:50;;;;;;;12.50;6.60;;;;;;;6.00;100.00;100647.64;108994;1254;59156;-90
2023/01/20 13:33:39;;;;;;;13.40;6.50;;;;;;;5.99;100.00;100646.22;108911;1262;75271;-90
2023/01/20 13:36:27;;;;;;;14.10;7.40;;;;;;;5.98;100.00;100648.77;109018;1254;69118;-89
2023/01/20 13:39:32;;;;;;;18.20;7.60;;;;;;;6.00;100.00;100642.58;108908;1257;75181;-90
2023/01/20 13:42:38;;;;;;;15.80;6.90;;;;;;;6.00;100.00;100646.71;109036;1254;61788;-89
2023/01/20 13:45:26;;;;;;;14.90;5.90;;;;;;;6.01;100.00;100650.65;108942;1254;61924;-89
2023/01/20 13:48:14;;;;;;;13.30;6.10;;;;;;;6.00;100.00;100645.42;108906;1254;72796;-90
2023/01/20 13:51:20;;;;;;;13.30;6.30;;;;;;;6.00;100.00;100644.06;109041;1254;70560;-90
2023/01/20 13:54:32;;;;;;;14.80;6.00;;;;;;;5.97;100.00;100644.71;109144;1256;73352;-89
2023/01/20 13:57:26;;;;;;;13.40;6.40;;;;;;;5.91;100.00;100639.59;108917;1256;62850;-92
2023/01/20 16:07:26;;;;;;;34.80;13.90;;;;;;;3.64;100.00;100742.09;106182;1286;600593;-91
2023/01/20 16:10:15;;;;;;;33.50;14.00;;;;;;;3.75;100.00;100739.33;108266;1267;62777;-90
2023/01/20 16:13:03;;;;;;;29.30;12.60;;;;;;;3.84;100.00;100740.84;108291;1267;62052;-91
2023/01/20 16:15:51;;;;;;;23.70;11.40;;;;;;;3.91;100.00;100748.27;108271;1267;74839;-91
2023/01/20 16:18:39;;;;;;;31.10;12.50;;;;;;;3.99;100.00;100746.81;108163;1272;71312;-91
2023/01/20 16:21:26;;;;;;;24.30;10.90;;;;;;;4.06;100.00;100740.34;108222;1264;153437;-91
2023/01/20 16:24:14;;;;;;;24.40;10.50;;;;;;;4.14;100.00;100744.93;108455;1264;62070;-90
2023/01/20 16:27:03;;;;;;;29.10;11.70;;;;;;;4.19;100.00;100749.56;108474;1263;59521;-91
2023/01/20 16:29:50;;;;;;;29.50;12.10;;;;;;;4.20;100.00;100746.08;108425;1264;72995;-89
2023/01/20 16:32:38;;;;;;;23.50;11.30;;;;;;;4.20;100.00;100746.39;108432;1264;70785;-91
2023/01/20 16:35:26;;;;;;;27.20;11.50;;;;;;;4.18;100.00;100744.50;108467;1263;74851;-93
2023/01/20 16:38:15;;;;;;;21.70;10.70;;;;;;;4.14;100.00;100746.08;108413;1264;60921;-93
2023/01/20 16:41:05;;;;;;;24.30;11.40;;;;;;;4.11;100.00;100748.75;108794;1257;63141;-91
2023/01/20 16:43:53;;;;;;;27.50;12.10;;;;;;;4.09;100.00;100749.23;108800;1257;75620;-89
2023/01/20 16:46:40;;;;;;;26.70;11.50;;;;;;;4.07;100.00;100753.19;108889;1257;69657;-92
2023/01/20 16:49:28;;;;;;;27.80;12.80;;;;;;;4.04;100.00;100750.30;108837;1259;74603;-90
2023/01/20 16:52:15;;;;;;;29.20;12.10;;;;;;;4.07;100.00;100755.89;108720;1257;59401;-90
2023/01/20 16:55:03;;;;;;;29.30;12.30;;;;;;;4.09;100.00;100751.45;108800;1260;62825;-91
2023/01/20 16:57:51;;;;;;;24.80;12.00;;;;;;;4.15;100.00;100750.04;108907;1256;74934;-90
2023/01/20 17:00:38;;;;;;;29.30;13.10;;;;;;;4.15;100.00;100755.31;108829;1257;70188;-90
2023/01/20 17:03:26;;;;;;;31.80;13.90;;;;;;;4.15;100.00;100756.48;108889;1256;74421;-89
2023/01/20 17:06:15;;;;;;;34.70;14.10;;;;;;;4.13;100.00;100760.50;108873;1257;60176;-92
2023/01/20 17:09:04;;;;;;;29.40;12.60;;;;;;;4.11;100.00;100755.89;108950;1257;62096;-90
2023/01/20 17:11:51;;;;;;;30.70;13.90;;;;;;;4.09;100.00;100765.52;108799;1257;75117;-90
2023/01/20 17:14:39;;;;;;;29.90;12.90;;;;;;;4.11;100.00;100762.45;108823;1257;70228;-91
2023/01/20 17:17:27;;;;;;;30.70;12.90;;;;;;;4.11;100.00;100767.24;108794;1257;73379;-92
2023/01/20 17:20:16;;;;;;;38.20;14.50;;;;;;;4.08;100.00;100771.77;108815;1257;60152;-90
2023/01/20 17:23:04;;;;;;;28.50;13.50;;;;;;;4.05;100.00;100770.73;108795;1257;61587;-91
2023/01/20 17:25:52;;;;;;;29.30;13.40;;;;;;;4.04;100.00;100768.95;108834;1257;72325;-91
2023/01/20 17:28:39;;;;;;;26.80;12.70;;;;;;;4.00;100.00;100763.05;108798;1257;70126;-90
2023/01/20 17:31:27;;;;;;;27.90;13.00;;;;;;;3.96;100.00;100769.55;108818;1260;74094;-89
2023/01/20 17:34:16;;;;;;;28.60;13.20;;;;;;;3.93;100.00;100772.59;108825;1256;62937;-89
2023/01/20 17:37:03;;;;;;;33.20;13.70;;;;;;;3.88;100.00;100782.05;109152;1253;62186;-88
2023/01/20 17:39:51;;;;;;;32.50;13.90;;;;;;;3.85;100.00;100784.70;109233;1252;75626;-90
2023/01/20 17:42:38;;;;;;;36.50;13.90;;;;;;;3.82;100.00;100786.95;109190;1254;71232;-92
2023/01/20 17:45:29;;;;;;;28.50;13.10;;;;;;;3.80;100.00;100789.30;109113;1253;73368;-91
2023/01/20 17:48:17;;;;;;;29.60;14.20;;;;;;;3.78;100.00;100784.27;109136;1253;60908;-92
2023/01/20 17:51:13;;;;;;;30.10;13.50;;;;;;;3.75;100.00;100787.65;109205;1252;62329;-91
2023/01/20 17:54:00;;;;;;;28.60;12.80;;;;;;;3.70;100.00;100784.91;109172;1252;73509;-90
2023/01/20 17:56:50;;;;;;;27.70;14.50;;;;;;;3.67;100.00;100787.00;109072;1254;72909;-91
2023/01/20 17:59:38;;;;;;;33.70;14.30;;;;;;;3.60;100.00;100789.11;109148;1253;71758;-94
2023/01/20 18:02:26;;;;;;;28.50;13.70;;;;;;;3.53;100.00;100791.35;109204;1253;60999;-92
2023/01/20 18:05:13;;;;;;;29.40;14.10;;;;;;;3.50;100.00;100789.23;109323;1253;60161;-92
2023/01/20 18:08:01;;;;;;;29.30;14.60;;;;;;;3.45;100.00;100791.14;108993;1255;74380;-92
2023/01/20 18:10:49;;;;;;;32.60;13.80;;;;;;;3.40;100.00;100789.91;109184;1252;69539;-90
2023/01/20 18:13:37;;;;;;;30.90;14.30;;;;;;;3.34;100.00;100790.34;109166;1254;73779;-92
2023/01/20 18:16:36;;;;;;;32.80;12.70;;;;;;;3.28;100.00;100789.28;109049;1253;60188;-94
2023/01/20 18:19:23;;;;;;;29.10;13.60;;;;;;;3.23;100.00;100788.58;109138;1253;60782;-91
2023/01/20 18:22:13;;;;;;;31.00;12.60;;;;;;;3.18;100.00;100789.41;109167;1252;73526;-92
2023/01/20 18:25:01;;;;;;;30.00;12.10;;;;;;;3.12;100.00;100790.72;109156;1253;68907;-92
2023/01/20 18:27:49;;;;;;;31.00;13.30;;;;;;;3.07;100.00;100793.81;109169;1253;73096;-92
2023/01/20 18:30:36;;;;;;;35.10;14.20;;;;;;;3.02;100.00;100794.70;109099;1253;61936;-92
2023/01/20 18:33:24;;;;;;;29.40;13.00;;;;;;;2.98;100.00;100789.04;109123;1253;62394;-91
2023/01/20 18:36:17;;;;;;;26.30;11.40;;;;;;;2.95;100.00;100792.07;109152;1252;73994;-92
2023/01/20 18:39:13;;;;;;;32.70;14.00;;;;;;;2.90;100.00;100796.14;109153;1253;66863;-92
2023/01/20 18:42:01;;;;;;;33.00;14.60;;;;;;;2.88;100.00;100802.55;108963;1253;72516;-91
2023/01/20 18:44:49;;;;;;;44.30;16.70;;;;;;;2.90;100.00;100814.24;109127;1254;62752;-91
2023/01/20 18:47:36;;;;;;;38.70;16.10;;;;;;;2.87;100.00;100811.69;109137;1253;60628;-91
2023/01/20 18:50:24;;;;;;;50.00;15.70;;;;;;;2.85;100.00;100813.34;109204;1253;75709;-90
2023/01/20 18:53:12;;;;;;;36.70;13.90;;;;;;;2.83;100.00;100818.88;109173;1253;70306;-91
2023/01/20 18:56:10;;;;;;;30.70;13.90;;;;;;;2.77;100.00;100822.15;109162;1253;73881;-93
2023/01/20 18:58:58;;;;;;;31.30;13.20;;;;;;;2.76;100.00;100822.29;109053;1253;63128;-91
2023/01/20 19:01:47;;;;;;;28.50;12.20;;;;;;;2.73;100.00;100822.72;109242;1253;61329;-91
2023/01/20 19:04:35;;;;;;;33.40;13.10;;;;;;;2.71;100.00;100823.23;109122;1253;73909;-92
2023/01/20 19:07:22;;;;;;;26.80;13.00;;;;;;;2.68;100.00;100824.50;109016;1253;70555;-91
2023/01/20 19:10:10;;;;;;;29.90;13.60;;;;;;;2.67;100.00;100827.00;109100;1252;75044;-92
2023/01/20 19:12:58;;;;;;;30.40;11.10;;;;;;;2.65;100.00;100830.25;109196;1252;63616;-90
2023/01/20 19:15:45;;;;;;;34.50;12.70;;;;;;;2.57;100.00;100837.94;109151;1253;61237;-91
2023/01/20 19:18:33;;;;;;;30.70;12.80;;;;;;;2.53;100.00;100836.98;109125;1253;74798;-91
2023/01/20 19:21:21;;;;;;;30.00;12.60;;;;;;;2.49;100.00;100840.31;109210;1253;70519;-93
2023/01/20 19:24:13;;;;;;;30.30;13.10;;;;;;;2.46;100.00;100837.39;109302;1252;74692;-94
2023/01/20 19:27:01;;;;;;;31.00;12.60;;;;;;;2.43;100.00;100845.04;108990;1252;63634;-91
2023/01/20 19:29:49;;;;;;;31.70;13.20;;;;;;;2.38;100.00;100846.06;109147;1253;61061;-93